Time,TemperatureF,DewpointF,PressureIn,WindDirection,WindDirectionDegrees,WindSpeedMPH,WindSpeedGustMPH,Humidity,HourlyPrecipIn,Conditions,Clouds,dailyrainin,SoftwareType,DateUTC
2013-07-06 00:09:00,80.6,66.4,29.97,South,180,2.7,-999.0,62,-99.99,,,0.00,Acu-Link.com,2013-07-06 05:09:00,
2013-07-06 00:25:00,80.1,66.3,29.97,South,180,3.1,-999.0,63,-99.99,,,0.00,Acu-Link.com,2013-07-06 05:25:00,
2013-07-06 00:40:00,79.0,66.2,29.98,North,0,0.0,-999.0,65,-99.99,,,0.00,Acu-Link.com,2013-07-06 05:40:00,
2013-07-06 00:55:00,78.3,65.9,29.97,SW,225,1.6,-999.0,66,-99.99,,,0.00,Acu-Link.com,2013-07-06 05:55:00,
2013-07-06 01:10:00,77.7,66.3,29.97,WSW,247,2.7,-999.0,68,-99.99,,,0.00,Acu-Link.com,2013-07-06 06:10:00,
2013-07-06 01:26:00,77.0,66.0,29.97,South,180,2.2,-999.0,69,-99.99,,,0.00,Acu-Link.com,2013-07-06 06:26:00,
2013-07-06 01:41:00,76.1,66.0,29.97,East,90,0.0,-999.0,71,-99.99,,,0.00,Acu-Link.com,2013-07-06 06:41:00,
2013-07-06 01:56:00,75.7,66.1,29.97,NNE,22,1.1,-999.0,72,-99.99,,,0.00,Acu-Link.com,2013-07-06 06:56:00,
2013-07-06 02:11:00,75.4,65.7,29.97,South,180,2.7,-999.0,72,-99.99,,,0.00,Acu-Link.com,2013-07-06 07:11:00,
2013-07-06 02:26:00,75.0,66.2,29.98,SW,225,1.6,-999.0,74,-99.99,,,0.00,Acu-Link.com,2013-07-06 07:26:00,
2013-07-06 02:42:00,74.7,65.8,29.97,SSE,157,1.1,-999.0,74,-99.99,,,0.00,Acu-Link.com,2013-07-06 07:42:00,
2013-07-06 02:57:00,74.3,65.8,29.97,SSE,157,0.0,-999.0,75,-99.99,,,0.00,Acu-Link.com,2013-07-06 07:57:00,
2013-07-06 03:12:00,74.1,65.7,29.97,West,270,1.6,-999.0,75,-99.99,,,0.00,Acu-Link.com,2013-07-06 08:12:00,
2013-07-06 03:27:00,73.9,65.9,29.96,WSW,247,1.6,-999.0,76,-99.99,,,0.00,Acu-Link.com,2013-07-06 08:27:00,
2013-07-06 03:42:00,73.6,65.9,29.96,WNW,292,1.6,-999.0,77,-99.99,,,0.00,Acu-Link.com,2013-07-06 08:42:00,
2013-07-06 03:58:00,73.4,65.7,29.97,NNE,22,2.7,-999.0,77,-99.99,,,0.00,Acu-Link.com,2013-07-06 08:58:00,
2013-07-06 04:13:00,72.7,65.4,29.97,South,180,0.0,-999.0,78,-99.99,,,0.00,Acu-Link.com,2013-07-06 09:13:00,
2013-07-06 04:28:00,72.3,65.4,29.97,WNW,292,2.2,-999.0,79,-99.99,,,0.00,Acu-Link.com,2013-07-06 09:28:00,
2013-07-06 04:43:00,72.3,65.4,29.97,SSE,157,0.0,-999.0,79,-99.99,,,0.00,Acu-Link.com,2013-07-06 09:43:00,
2013-07-06 04:58:00,72.0,65.8,29.97,SW,225,0.0,-999.0,81,-99.99,,,0.00,Acu-Link.com,2013-07-06 09:58:00,
2013-07-06 05:13:00,71.6,65.8,29.97,SSE,157,3.1,-999.0,82,-99.99,,,0.00,Acu-Link.com,2013-07-06 10:13:00,
2013-07-06 05:29:00,71.6,66.2,29.97,WSW,247,1.6,-999.0,83,-99.99,,,0.00,Acu-Link.com,2013-07-06 10:29:00,
2013-07-06 05:44:00,71.4,66.7,29.97,ENE,67,2.2,-999.0,85,-99.99,,,0.00,Acu-Link.com,2013-07-06 10:44:00,
2013-07-06 05:59:00,70.9,66.8,29.97,NE,45,3.8,-999.0,87,-99.99,,,0.00,Acu-Link.com,2013-07-06 10:59:00,
2013-07-06 06:14:00,70.9,67.5,29.97,ESE,112,0.0,-999.0,89,-99.99,,,0.00,Acu-Link.com,2013-07-06 11:14:00,
2013-07-06 06:30:00,70.9,68.4,29.97,ESE,112,0.0,-999.0,92,-99.99,,,0.00,Acu-Link.com,2013-07-06 11:30:00,
2013-07-06 06:45:00,71.4,69.0,29.97,SE,135,3.8,-999.0,92,-99.99,,,0.00,Acu-Link.com,2013-07-06 11:45:00,
2013-07-06 07:00:00,72.7,69.9,29.98,WSW,247,3.1,-999.0,91,-99.99,,,0.00,Acu-Link.com,2013-07-06 12:00:00,
2013-07-06 07:15:00,74.3,70.5,29.98,South,180,3.1,-999.0,88,-99.99,,,0.00,Acu-Link.com,2013-07-06 12:15:00,
2013-07-06 07:30:00,75.7,70.9,29.98,SSE,157,3.8,-999.0,85,-99.99,,,0.00,Acu-Link.com,2013-07-06 12:30:00,
2013-07-06 07:46:00,78.1,71.4,29.98,SW,225,3.1,-999.0,80,-99.99,,,0.00,Acu-Link.com,2013-07-06 12:46:00,
2013-07-06 08:01:00,79.9,72.4,29.98,SSE,157,2.2,-999.0,78,-99.99,,,0.00,Acu-Link.com,2013-07-06 13:01:00,
2013-07-06 08:16:00,80.6,72.3,29.99,SSE,157,3.8,-999.0,76,-99.99,,,0.00,Acu-Link.com,2013-07-06 13:16:00,
2013-07-06 08:31:00,82.8,73.2,29.99,ESE,112,3.1,-999.0,73,-99.99,,,0.00,Acu-Link.com,2013-07-06 13:31:00,
2013-07-06 08:46:00,84.6,74.1,30.00,SSW,202,3.8,-999.0,71,-99.99,,,0.00,Acu-Link.com,2013-07-06 13:46:00,
2013-07-06 09:02:00,86.0,73.7,29.99,South,180,3.8,-999.0,67,-99.99,,,0.00,Acu-Link.com,2013-07-06 14:02:00,
2013-07-06 09:17:00,88.0,74.2,29.99,South,180,6.3,-999.0,64,-99.99,,,0.00,Acu-Link.com,2013-07-06 14:17:00,
2013-07-06 09:32:00,90.7,75.3,30.00,SSE,157,2.2,-999.0,61,-99.99,,,0.00,Acu-Link.com,2013-07-06 14:32:00,
2013-07-06 09:47:00,87.3,74.5,29.99,SSW,202,4.3,-999.0,66,-99.99,,,0.00,Acu-Link.com,2013-07-06 14:47:00,
2013-07-06 10:02:00,88.3,74.6,29.99,SE,135,3.1,-999.0,64,-99.99,,,0.00,Acu-Link.com,2013-07-06 15:02:00,
2013-07-06 10:18:00,88.2,73.9,29.98,SW,225,4.3,-999.0,63,-99.99,,,0.00,Acu-Link.com,2013-07-06 15:18:00,
2013-07-06 10:33:00,89.4,74.6,29.98,SW,225,2.2,-999.0,62,-99.99,,,0.00,Acu-Link.com,2013-07-06 15:33:00,
2013-07-06 10:48:00,90.3,75.0,29.99,SSE,157,6.3,-999.0,61,-99.99,,,0.00,Acu-Link.com,2013-07-06 15:48:00,
2013-07-06 11:03:00,90.5,74.2,29.99,West,270,3.1,-999.0,59,-99.99,,,0.00,Acu-Link.com,2013-07-06 16:03:00,
2013-07-06 11:19:00,90.9,73.5,29.99,WNW,292,3.8,-999.0,57,-99.99,,,0.00,Acu-Link.com,2013-07-06 16:19:00,
2013-07-06 11:34:00,93.4,74.8,29.98,SW,225,2.7,-999.0,55,-99.99,,,0.00,Acu-Link.com,2013-07-06 16:34:00,
2013-07-06 11:49:00,93.2,73.5,29.98,South,180,6.7,-999.0,53,-99.99,,,0.00,Acu-Link.com,2013-07-06 16:49:00,
2013-07-06 12:04:00,93.6,73.2,29.99,ESE,112,6.7,-999.0,52,-99.99,,,0.00,Acu-Link.com,2013-07-06 17:04:00,
2013-07-06 12:19:00,94.5,73.5,29.98,SW,225,6.7,-999.0,51,-99.99,,,0.00,Acu-Link.com,2013-07-06 17:19:00,
2013-07-06 12:35:00,92.7,71.8,29.98,NE,45,4.3,-999.0,51,-99.99,,,0.00,Acu-Link.com,2013-07-06 17:35:00,
2013-07-06 12:50:00,95.9,73.6,29.98,ENE,67,3.1,-999.0,49,-99.99,,,0.00,Acu-Link.com,2013-07-06 17:50:00,
2013-07-06 13:20:00,96.1,71.9,29.97,NE,45,6.3,-999.0,46,-99.99,,,0.00,Acu-Link.com,2013-07-06 18:20:00,
2013-07-06 13:35:00,96.6,71.1,29.97,South,180,7.4,-999.0,44,-99.99,,,0.00,Acu-Link.com,2013-07-06 18:35:00,
2013-07-06 14:21:00,98.2,73.2,29.95,NNW,337,3.8,-999.0,45,-99.99,,,0.00,Acu-Link.com,2013-07-06 19:21:00,
2013-07-06 14:36:00,97.2,71.6,29.94,SSW,202,3.8,-999.0,44,-99.99,,,0.00,Acu-Link.com,2013-07-06 19:36:00,
2013-07-06 14:52:00,97.3,71.7,29.94,SE,135,5.8,-999.0,44,-99.99,,,0.00,Acu-Link.com,2013-07-06 19:52:00,
2013-07-06 15:22:00,97.9,70.8,29.93,South,180,5.1,-999.0,42,-99.99,,,0.00,Acu-Link.com,2013-07-06 20:22:00,
2013-07-06 15:37:00,97.9,70.1,29.93,SE,135,6.7,-999.0,41,-99.99,,,0.00,Acu-Link.com,2013-07-06 20:37:00,
2013-07-06 15:52:00,97.9,67.9,29.92,East,90,3.1,-999.0,38,-99.99,,,0.00,Acu-Link.com,2013-07-06 20:52:00,
2013-07-06 16:08:00,96.6,66.8,29.92,NNW,337,2.2,-999.0,38,-99.99,,,0.00,Acu-Link.com,2013-07-06 21:08:00,
2013-07-06 16:23:00,97.9,66.3,29.91,NE,45,5.1,-999.0,36,-99.99,,,0.00,Acu-Link.com,2013-07-06 21:23:00,
2013-07-06 16:38:00,98.6,67.0,29.91,East,90,5.8,-999.0,36,-99.99,,,0.00,Acu-Link.com,2013-07-06 21:38:00,
2013-07-06 16:53:00,99.0,65.6,29.90,South,180,3.1,-999.0,34,-99.99,,,0.00,Acu-Link.com,2013-07-06 21:53:00,
2013-07-06 17:24:00,98.4,66.8,29.90,NNW,337,3.1,-999.0,36,-99.99,,,0.00,Acu-Link.com,2013-07-06 22:24:00,
2013-07-06 17:39:00,99.3,67.6,29.90,ESE,112,5.8,-999.0,36,-99.99,,,0.00,Acu-Link.com,2013-07-06 22:39:00,
2013-07-06 17:54:00,97.9,66.3,29.89,NE,45,1.1,-999.0,36,-99.99,,,0.00,Acu-Link.com,2013-07-06 22:54:00,
2013-07-06 18:09:00,99.3,65.9,29.89,East,90,2.2,-999.0,34,-99.99,,,0.00,Acu-Link.com,2013-07-06 23:09:00,
2013-07-06 18:55:00,97.7,65.4,29.89,NE,45,4.7,-999.0,35,-99.99,,,0.00,Acu-Link.com,2013-07-06 23:55:00,
2013-07-06 19:10:00,96.8,62.0,29.89,SE,135,4.7,-999.0,32,-99.99,,,0.00,Acu-Link.com,2013-07-07 00:10:00,
2013-07-06 19:25:00,95.7,62.8,29.90,ESE,112,3.1,-999.0,34,-99.99,,,0.00,Acu-Link.com,2013-07-07 00:25:00,
2013-07-06 19:41:00,95.0,63.0,29.90,NNE,22,4.7,-999.0,35,-99.99,,,0.00,Acu-Link.com,2013-07-07 00:41:00,
2013-07-06 19:56:00,93.2,63.8,29.90,South,180,1.1,-999.0,38,-99.99,,,0.00,Acu-Link.com,2013-07-07 00:56:00,
2013-07-06 20:11:00,91.2,63.5,29.90,SW,225,1.1,-999.0,40,-99.99,,,0.00,Acu-Link.com,2013-07-07 01:11:00,
2013-07-06 20:57:00,86.5,65.1,29.92,WSW,247,0.0,-999.0,49,-99.99,,,0.00,Acu-Link.com,2013-07-07 01:57:00,
2013-07-06 21:12:00,85.5,65.8,29.92,ENE,67,1.1,-999.0,52,-99.99,,,0.00,Acu-Link.com,2013-07-07 02:12:00,
2013-07-06 21:42:00,83.8,66.4,29.93,East,90,2.2,-999.0,56,-99.99,,,0.00,Acu-Link.com,2013-07-07 02:42:00,
2013-07-06 22:13:00,82.8,66.4,29.94,NE,45,3.1,-999.0,58,-99.99,,,0.00,Acu-Link.com,2013-07-07 03:13:00,
2013-07-06 22:28:00,82.0,66.8,29.94,ENE,67,3.8,-999.0,60,-99.99,,,0.00,Acu-Link.com,2013-07-07 03:28:00,
2013-07-06 22:43:00,81.3,66.6,29.95,East,90,2.2,-999.0,61,-99.99,,,0.00,Acu-Link.com,2013-07-07 03:43:00,
2013-07-06 22:58:00,81.3,67.0,29.96,NNE,22,3.1,-999.0,62,-99.99,,,0.00,Acu-Link.com,2013-07-07 03:58:00,
2013-07-06 23:13:00,81.3,67.0,29.96,ESE,112,2.7,-999.0,62,-99.99,,,0.00,Acu-Link.com,2013-07-07 04:13:00,
2013-07-06 23:29:00,81.3,67.0,29.97,ENE,67,3.8,-999.0,62,-99.99,,,0.00,Acu-Link.com,2013-07-07 04:29:00,
2013-07-06 23:44:00,81.5,66.7,29.97,NNE,22,3.1,-999.0,61,-99.99,,,0.00,Acu-Link.com,2013-07-07 04:44:00,
2013-07-06 23:59:00,81.3,67.0,29.97,ESE,112,2.7,-999.0,62,-99.99,,,0.00,Acu-Link.com,2013-07-07 04:59:00,